Time;durP1;ratioP1;P1;durP2;ratioP2;P2;SDS_P1;SDS_P2;PMS_P1;PMS_P2;Temp;Humidity;BMP_temperature;BMP_pressure;BME280_temperature;BME280_humidity;BME280_pressure;Samples;Min_cycle;Max_cycle;Signal;HPM_P1;HPM_P2
2022/03/25 00:00:44;;;;;;;;;26.00;22.00;23.70;28.70;;;;;;112276;1243;23273;-36
2022/03/25 00:03:11;;;;;;;;;22.33;20.00;23.70;28.70;;;;;;112662;1241;24003;-36
2022/03/25 00:05:38;;;;;;;;;27.67;20.67;23.70;28.60;;;;;;112656;1241;23257;-36
2022/03/25 00:08:05;;;;;;;;;29.00;25.50;23.70;28.60;;;;;;112324;1243;23276;-36
2022/03/25 00:10:33;;;;;;;;;29.00;21.50;23.70;28.70;;;;;;112698;1242;23599;-36
2022/03/25 00:13:00;;;;;;;;;28.00;22.33;23.70;28.90;;;;;;112680;1242;23833;-36
2022/03/25 00:15:27;;;;;;;;;28.67;24.00;23.70;28.60;;;;;;112649;1241;24892;-36
2022/03/25 00:17:54;;;;;;;;;29.33;23.33;23.60;28.50;;;;;;112673;1242;23966;-36
2022/03/25 00:20:20;;;;;;;;;20.00;20.00;23.60;28.50;;;;;;112645;1241;23511;-36
2022/03/25 00:22:47;;;;;;;;;27.33;23.67;23.70;29.00;;;;;;112749;1242;23609;-37
2022/03/25 00:25:14;;;;;;;;;25.00;21.33;23.60;28.50;;;;;;112631;1243;23486;-36
2022/03/25 00:27:41;;;;;;;;;32.00;26.50;23.70;28.50;;;;;;112655;1243;23190;-36
2022/03/25 00:30:09;;;;;;;;;24.67;22.00;23.60;28.60;;;;;;112680;1242;23444;-36
2022/03/25 00:32:37;;;;;;;;;26.67;25.00;23.60;28.70;;;;;;112629;1241;23876;-36
2022/03/25 00:35:04;;;;;;;;;19.67;16.33;23.60;28.50;;;;;;112666;1242;23559;-36
2022/03/25 00:37:31;;;;;;;;;27.50;25.50;23.60;28.50;;;;;;112675;1243;23443;-35
2022/03/25 00:39:58;;;;;;;;;30.00;24.67;23.60;28.50;;;;;;112671;1242;23542;-36
2022/03/25 00:42:25;;;;;;;;;20.67;18.33;23.60;28.50;;;;;;112698;1243;23458;-35
2022/03/25 00:44:54;;;;;;;;;25.33;23.00;23.60;28.50;;;;;;112701;1241;23275;-35
2022/03/25 00:47:23;;;;;;;;;27.67;25.33;23.60;28.40;;;;;;112745;1243;24693;-35
2022/03/25 00:49:50;;;;;;;;;31.50;25.50;23.60;28.50;;;;;;112693;1243;23403;-36
2022/03/25 00:52:18;;;;;;;;;33.00;24.50;23.60;28.50;;;;;;112702;1242;23491;-36
2022/03/25 00:54:45;;;;;;;;;26.67;23.33;23.60;28.50;;;;;;112679;1243;23287;-36
2022/03/25 00:57:12;;;;;;;;;29.33;25.33;23.60;28.50;;;;;;112658;1243;23419;-36
2022/03/25 00:59:39;;;;;;;;;28.50;25.00;23.50;28.50;;;;;;112675;1242;23206;-36
2022/03/25 01:02:06;;;;;;;;;31.33;23.00;23.50;28.60;;;;;;112665;1243;23249;-36
2022/03/25 01:04:33;;;;;;;;;29.67;25.33;23.50;28.40;;;;;;112671;1243;23560;-35
2022/03/25 01:07:00;;;;;;;;;27.00;23.50;23.50;28.40;;;;;;112320;1244;23397;-36
2022/03/25 01:09:27;;;;;;;;;37.67;31.33;23.50;28.40;;;;;;112521;1243;23119;-36
2022/03/25 01:11:54;;;;;;;;;31.00;27.33;23.50;28.50;;;;;;112499;1243;23508;-36
2022/03/25 01:14:22;;;;;;;;;32.00;26.33;23.50;28.40;;;;;;112302;1244;23825;-36
2022/03/25 01:16:49;;;;;;;;;12.00;8.33;23.50;28.30;;;;;;112602;1243;23133;-36
2022/03/25 01:19:16;;;;;;;;;29.50;26.50;23.50;28.40;;;;;;112214;1242;24556;-36
2022/03/25 01:21:43;;;;;;;;;34.00;27.33;23.50;28.50;;;;;;112548;1242;23474;-37
2022/03/25 01:24:09;;;;;;;;;27.00;25.00;23.40;28.40;;;;;;112692;1242;24035;-36
2022/03/25 01:26:36;;;;;;;;;37.00;27.00;23.40;28.30;;;;;;112636;1241;23961;-36
2022/03/25 01:29:05;;;;;;;;;27.00;25.00;23.50;28.40;;;;;;112363;1243;23535;-35
2022/03/25 01:31:32;;;;;;;;;35.00;29.00;23.40;28.60;;;;;;112717;1243;23424;-36
2022/03/25 01:33:59;;;;;;;;;30.33;24.33;23.40;28.40;;;;;;112699;1242;23283;-36
2022/03/25 01:36:26;;;;;;;;;31.00;26.00;23.40;28.40;;;;;;112745;1241;23261;-36
2022/03/25 01:38:53;;;;;;;;;26.00;25.00;23.40;28.40;;;;;;112689;1241;23444;-36
2022/03/25 01:41:19;;;;;;;;;35.33;27.33;23.40;28.30;;;;;;112499;1243;24613;-36
2022/03/25 01:43:57;;;;;;;;;37.33;28.67;23.40;28.30;;;;;;112713;1243;23265;-36
2022/03/25 01:46:26;;;;;;;;;31.00;25.00;23.40;28.40;;;;;;112687;1241;23401;-35
2022/03/25 01:48:54;;;;;;;;;30.67;24.33;23.40;28.40;;;;;;112647;1242;23373;-35
2022/03/25 01:51:30;;;;;;;;;31.33;28.33;23.30;28.30;;;;;;112778;1242;23601;-36
2022/03/25 01:54:28;;;;;;;;;32.33;25.00;23.30;28.30;;;;;;112520;1243;23230;-36
2022/03/25 01:57:01;;;;;;;;;28.67;26.00;23.30;28.20;;;;;;112550;1243;23728;-36
2022/03/25 01:59:30;;;;;;;;;30.33;27.67;23.30;28.20;;;;;;112554;1242;23581;-36
2022/03/25 02:01:57;;;;;;;;;34.33;29.33;23.30;28.20;;;;;;112546;1243;24427;-36
2022/03/25 02:04:25;;;;;;;;;32.33;24.67;23.30;28.10;;;;;;112647;1242;23434;-35
2022/03/25 02:06:53;;;;;;;;;34.00;25.00;23.30;28.10;;;;;;112648;1242;23760;-35
2022/03/25 02:09:20;;;;;;;;;34.33;26.00;23.20;28.30;;;;;;112663;1242;23530;-35
2022/03/25 02:11:47;;;;;;;;;34.00;27.50;23.30;28.20;;;;;;112664;1242;23394;-36
2022/03/25 02:14:14;;;;;;;;;32.33;25.33;23.20;28.20;;;;;;112739;1242;23487;-35
2022/03/25 02:16:47;;;;;;;;;31.33;26.67;23.20;28.10;;;;;;112680;1242;23559;-35
2022/03/25 02:19:18;;;;;;;;;29.33;25.33;23.30;28.20;;;;;;112748;1243;23216;-41
2022/03/25 02:21:47;;;;;;;;;30.00;26.00;23.20;28.20;;;;;;112667;1243;24139;-35
2022/03/25 02:24:15;;;;;;;;;24.67;21.00;23.30;28.10;;;;;;112440;1243;23469;-35
2022/03/25 02:26:44;;;;;;;;;30.67;28.33;23.30;28.10;;;;;;112527;1243;23980;-36
2022/03/25 02:29:14;;;;;;;;;32.33;24.33;23.30;28.50;;;;;;112576;1243;23224;-35
2022/03/25 02:31:42;;;;;;;;;21.00;21.00;23.30;28.20;;;;;;112460;1243;23317;-36
2022/03/25 02:34:10;;;;;;;;;30.00;26.50;23.30;28.20;;;;;;112318;1243;23304;-35
2022/03/25 02:36:42;;;;;;;;;29.50;24.50;23.30;28.00;;;;;;112585;1243;23296;-35
2022/03/25 02:39:11;;;;;;;;;23.00;21.67;23.30;28.00;;;;;;112585;1242;24244;-35
2022/03/25 02:41:40;;;;;;;;;29.33;22.33;23.40;28.00;;;;;;112570;1242;23255;-38
2022/03/25 02:44:08;;;;;;;;;31.67;28.00;23.40;28.00;;;;;;112638;1242;24202;-36
2022/03/25 02:46:34;;;;;;;;;31.50;25.50;23.40;27.90;;;;;;112683;1242;23510;-35
2022/03/25 02:49:02;;;;;;;;;29.00;26.67;23.40;27.90;;;;;;112607;1242;23669;-36
2022/03/25 02:51:29;;;;;;;;;28.00;20.50;23.40;27.90;;;;;;112602;1243;23649;-35
2022/03/25 02:53:56;;;;;;;;;33.00;27.00;23.40;27.70;;;;;;112594;1242;24071;-35
2022/03/25 02:56:24;;;;;;;;;29.00;24.33;23.40;28.30;;;;;;112627;1243;23245;-36
2022/03/25 02:58:53;;;;;;;;;30.00;23.00;23.40;28.10;;;;;;112337;1243;23214;-36
2022/03/25 03:01:20;;;;;;;;;25.67;23.33;23.40;28.10;;;;;;112654;1243;23240;-36
2022/03/25 03:03:47;;;;;;;;;30.00;26.00;23.40;27.90;;;;;;112506;1242;23992;-36
2022/03/25 03:06:14;;;;;;;;;28.00;23.67;23.30;27.90;;;;;;112598;1242;23516;-36
2022/03/25 03:08:41;;;;;;;;;30.67;28.00;23.40;28.00;;;;;;112574;1242;23536;-36
2022/03/25 03:11:08;;;;;;;;;31.00;27.67;23.30;27.90;;;;;;112322;1244;24255;-36
2022/03/25 03:13:35;;;;;;;;;30.00;23.67;23.30;28.00;;;;;;112298;1243;23824;-36
2022/03/25 03:16:02;;;;;;;;;26.00;23.33;23.30;27.90;;;;;;112574;1241;24608;-36
2022/03/25 03:18:29;;;;;;;;;28.33;21.67;23.30;28.00;;;;;;112594;1243;23611;-36
2022/03/25 03:20:58;;;;;;;;;28.00;23.50;23.30;28.00;;;;;;112576;1242;23415;-36
2022/03/25 03:23:25;;;;;;;;;26.67;24.00;23.30;28.00;;;;;;112711;1242;23537;-36
2022/03/25 03:25:52;;;;;;;;;26.33;22.33;23.30;28.00;;;;;;112439;1243;23310;-36
2022/03/25 03:28:19;;;;;;;;;28.67;21.67;23.30;28.10;;;;;;112223;1242;23679;-34
2022/03/25 03:30:46;;;;;;;;;31.00;23.33;23.30;28.00;;;;;;112700;1242;23517;-36
2022/03/25 03:33:13;;;;;;;;;26.50;23.50;23.30;28.00;;;;;;112706;1242;23256;-37
2022/03/25 03:35:40;;;;;;;;;27.67;21.67;23.30;28.10;;;;;;112789;1241;23671;-35
2022/03/25 03:38:07;;;;;;;;;27.00;21.00;23.30;28.10;;;;;;112729;1242;23426;-36
2022/03/25 03:40:34;;;;;;;;;26.50;22.50;23.30;28.10;;;;;;112716;1242;23643;-37
2022/03/25 03:43:03;;;;;;;;;25.33;21.33;23.30;28.10;;;;;;112705;1240;23775;-36
2022/03/25 03:45:32;;;;;;;;;28.00;22.33;23.30;28.20;;;;;;112807;1241;24492;-36
2022/03/25 03:47:59;;;;;;;;;26.67;22.33;23.30;28.10;;;;;;112807;1240;23761;-36
2022/03/25 03:50:26;;;;;;;;;25.00;22.50;23.30;28.20;;;;;;112742;1243;23441;-37
2022/03/25 03:52:52;;;;;;;;;25.33;22.67;23.20;28.20;;;;;;112815;1241;23542;-40
2022/03/25 03:55:20;;;;;;;;;28.33;24.33;23.20;28.20;;;;;;112726;1241;23612;-36
2022/03/25 03:57:46;;;;;;;;;24.00;19.67;23.20;28.20;;;;;;112702;1240;23658;-35
2022/03/25 04:00:14;;;;;;;;;23.33;22.67;23.20;28.40;;;;;;112826;1242;23384;-36
2022/03/25 04:02:44;;;;;;;;;25.33;21.33;23.20;28.30;;;;;;112735;1242;23709;-35
2022/03/25 04:05:12;;;;;;;;;26.67;22.00;23.20;28.50;;;;;;112422;1242;23205;-36
2022/03/25 04:07:48;;;;;;;;;21.00;21.00;23.20;28.30;;;;;;112744;1240;24329;-36
2022/03/25 04:10:17;;;;;;;;;20.00;17.00;23.20;28.30;;;;;;112744;1242;23718;-35
2022/03/25 04:12:44;;;;;;;;;15.00;11.00;23.20;28.60;;;;;;112732;1242;23324;-35
2022/03/25 04:15:12;;;;;;;;;25.67;22.33;23.20;28.60;;;;;;112804;1241;23491;-36
2022/03/25 04:17:41;;;;;;;;;21.67;21.00;23.20;28.60;;;;;;112733;1242;23391;-36
2022/03/25 04:20:10;;;;;;;;;26.00;23.00;23.20;28.70;;;;;;112747;1242;23620;-36
2022/03/25 04:22:37;;;;;;;;;21.00;17.00;23.20;28.80;;;;;;112713;1243;23236;-36
2022/03/25 04:25:07;;;;;;;;;23.33;19.67;23.20;28.80;;;;;;112464;1242;23543;-36
2022/03/25 04:27:48;;;;;;;;;21.67;20.00;23.30;28.80;;;;;;112821;1239;23557;-36
2022/03/25 04:30:22;;;;;;;;;25.00;20.00;23.20;28.70;;;;;;112756;1242;23254;-36
2022/03/25 04:32:49;;;;;;;;;22.67;21.33;23.20;28.70;;;;;;112752;1242;24325;-36
2022/03/25 04:35:17;;;;;;;;;22.67;21.00;23.20;28.70;;;;;;112805;1241;23465;-36
2022/03/25 04:37:45;;;;;;;;;21.00;18.00;23.20;28.70;;;;;;112617;1243;23434;-36
2022/03/25 04:40:17;;;;;;;;;21.00;21.00;23.20;28.60;;;;;;112700;1241;23955;-38
2022/03/25 04:42:49;;;;;;;;;26.33;22.67;23.20;28.60;;;;;;112447;1242;23626;-36
2022/03/25 04:45:17;;;;;;;;;23.50;21.50;23.20;28.70;;;;;;112734;1242;23341;-36
2022/03/25 04:47:46;;;;;;;;;24.00;22.00;23.20;29.00;;;;;;112737;1242;23547;-35
2022/03/25 04:50:14;;;;;;;;;25.00;20.33;23.20;29.10;;;;;;112697;1242;23936;-36
2022/03/25 04:52:42;;;;;;;;;24.67;23.67;23.20;29.80;;;;;;112727;1242;23639;-36
2022/03/25 04:55:11;;;;;;;;;31.33;26.00;23.30;30.30;;;;;;112824;1242;23440;-36
2022/03/25 04:57:39;;;;;;;;;23.00;21.00;23.40;32.20;;;;;;112551;1242;23335;-35
2022/03/25 05:00:09;;;;;;;;;25.33;23.00;23.50;35.30;;;;;;112665;1242;23669;-36
2022/03/25 05:02:37;;;;;;;;;22.00;18.67;23.60;35.50;;;;;;112696;1242;23748;-36
2022/03/25 05:05:05;;;;;;;;;21.00;20.33;23.70;32.70;;;;;;112669;1241;23323;-36
2022/03/25 05:07:35;;;;;;;;;20.50;19.50;23.70;36.20;;;;;;112765;1242;23315;-36
2022/03/25 05:10:04;;;;;;;;;21.33;15.33;23.80;35.70;;;;;;112762;1243;23738;-34
2022/03/25 05:12:30;;;;;;;;;26.67;19.33;23.90;38.80;;;;;;112473;1242;23238;-35
2022/03/25 05:14:58;;;;;;;;;25.00;22.00;23.90;38.40;;;;;;112704;1241;24094;-35
2022/03/25 05:17:25;;;;;;;;;25.00;22.67;24.00;41.80;;;;;;112757;1242;24272;-38
2022/03/25 05:19:53;;;;;;;;;18.67;17.33;24.10;39.00;;;;;;112451;1243;23358;-35
2022/03/25 05:22:21;;;;;;;;;23.00;20.00;24.10;36.10;;;;;;112782;1242;23733;-35
2022/03/25 05:24:48;;;;;;;;;17.00;15.00;24.10;36.60;;;;;;112765;1241;24333;-36
2022/03/25 05:27:16;;;;;;;;;20.00;15.67;24.10;36.10;;;;;;112753;1242;23367;-36
2022/03/25 05:29:44;;;;;;;;;22.50;15.00;24.10;38.40;;;;;;112724;1241;23352;-35
2022/03/25 05:32:11;;;;;;;;;21.33;18.00;24.10;41.50;;;;;;112721;1241;24133;-36
2022/03/25 05:34:38;;;;;;;;;14.00;14.00;24.20;39.20;;;;;;111633;1244;832197;-35
2022/03/25 05:37:06;;;;;;;;;23.67;19.33;24.20;40.00;;;;;;112456;1242;24259;-35
2022/03/25 05:39:34;;;;;;;;;18.67;14.00;24.20;42.80;;;;;;112378;1243;23449;-35
2022/03/25 05:42:01;;;;;;;;;21.25;19.75;24.30;40.30;;;;;;112541;1243;24221;-36
2022/03/25 05:44:30;;;;;;;;;20.33;17.33;24.30;43.10;;;;;;112721;1240;23564;-36
2022/03/25 05:46:59;;;;;;;;;26.00;23.67;24.30;40.60;;;;;;112783;1241;23606;-35
2022/03/25 05:49:26;;;;;;;;;28.33;24.33;24.30;43.10;;;;;;112744;1241;24200;-36
2022/03/25 05:51:53;;;;;;;;;27.67;25.33;24.30;41.80;;;;;;112762;1241;23938;-36
2022/03/25 05:54:20;;;;;;;;;26.00;21.67;24.30;43.10;;;;;;112656;1243;23519;-36
2022/03/25 05:56:46;;;;;;;;;19.33;19.00;24.30;43.50;;;;;;112690;1242;24356;-36
2022/03/25 05:59:14;;;;;;;;;26.67;21.33;24.40;41.00;;;;;;112439;1241;24107;-36
2022/03/25 06:01:41;;;;;;;;;18.50;18.50;24.30;38.70;;;;;;112524;1242;23619;-36
2022/03/25 06:04:12;;;;;;;;;24.00;18.00;24.30;38.00;;;;;;112759;1242;23691;-36
2022/03/25 06:06:39;;;;;;;;;18.75;16.75;24.20;37.20;;;;;;112540;1242;23928;-36
2022/03/25 06:09:05;;;;;;;;;16.67;15.00;24.20;38.10;;;;;;112489;1243;23574;-36
2022/03/25 06:11:32;;;;;;;;;18.00;13.00;24.20;37.50;;;;;;112323;1243;23572;-36
2022/03/25 06:13:59;;;;;;;;;21.00;17.33;24.10;37.00;;;;;;112334;1243;23400;-39
2022/03/25 06:16:26;;;;;;;;;21.33;18.67;24.20;37.20;;;;;;112963;1242;24575;-38
2022/03/25 06:18:55;;;;;;;;;22.00;18.67;24.10;35.60;;;;;;112528;1242;23646;-41
2022/03/25 06:21:22;;;;;;;;;23.00;19.00;24.10;34.50;;;;;;112717;1243;23628;-35
2022/03/25 06:23:50;;;;;;;;;20.33;19.00;24.10;34.40;;;;;;112609;1242;24152;-41
2022/03/25 06:26:17;;;;;;;;;22.33;16.67;24.10;35.60;;;;;;112689;1243;23386;-39
2022/03/25 06:28:44;;;;;;;;;23.33;18.67;24.10;35.40;;;;;;112659;1242;23953;-37
2022/03/25 06:31:11;;;;;;;;;23.67;17.00;24.10;35.30;;;;;;112639;1242;24585;-39
2022/03/25 06:33:39;;;;;;;;;26.00;19.75;24.10;35.40;;;;;;112577;1243;23432;-37
2022/03/25 06:36:13;;;;;;;;;18.00;17.25;24.10;35.60;;;;;;112707;1242;23327;-36
2022/03/25 06:38:40;;;;;;;;;19.50;17.75;24.20;35.60;;;;;;112597;1242;23481;-37
2022/03/25 06:41:10;;;;;;;;;24.33;20.00;24.20;35.60;;;;;;112617;1243;23302;-37
2022/03/25 06:43:37;;;;;;;;;24.00;20.67;24.20;35.70;;;;;;112759;1242;23505;-39
2022/03/25 06:46:05;;;;;;;;;23.00;19.00;24.20;35.90;;;;;;112782;1242;23325;-37
2022/03/25 06:48:33;;;;;;;;;17.67;15.00;24.20;35.90;;;;;;112779;1242;24371;-40
2022/03/25 06:51:00;;;;;;;;;35.67;29.67;24.20;35.90;;;;;;112726;1243;23869;-37
2022/03/25 06:53:27;;;;;;;;;37.67;29.33;23.60;27.80;;;;;;112678;1242;23524;-39
2022/03/25 06:55:55;;;;;;;;;19.00;19.00;22.70;26.90;;;;;;112724;1243;23502;-37
2022/03/25 06:58:22;;;;;;;;;34.67;26.00;22.00;27.20;;;;;;112614;1242;23315;-39
2022/03/25 07:00:49;;;;;;;;;23.50;22.00;21.60;28.20;;;;;;112672;1243;23759;-40
2022/03/25 07:03:16;;;;;;;;;25.33;22.00;21.80;29.10;;;;;;112504;1243;23837;-39
2022/03/25 07:05:43;;;;;;;;;26.67;21.00;22.00;29.60;;;;;;112598;1242;23532;-37
2022/03/25 07:08:11;;;;;;;;;32.00;28.00;22.30;29.80;;;;;;112793;1242;23309;-37
2022/03/25 07:10:39;;;;;;;;;33.00;28.00;22.50;31.60;;;;;;112505;1243;23247;-36
2022/03/25 07:13:06;;;;;;;;;31.00;25.00;22.70;32.10;;;;;;112639;1242;23519;-38
2022/03/25 07:15:33;;;;;;;;;39.67;32.00;22.80;32.40;;;;;;112684;1243;23673;-38
2022/03/25 07:18:00;;;;;;;;;27.33;19.33;22.90;33.10;;;;;;112623;1242;23542;-38
2022/03/25 07:20:27;;;;;;;;;22.33;20.33;23.00;32.60;;;;;;112659;1243;23610;-40
2022/03/25 07:22:54;;;;;;;;;29.33;21.67;23.10;32.40;;;;;;112595;1243;24048;-38
2022/03/25 07:25:21;;;;;;;;;28.00;22.00;23.10;32.90;;;;;;112478;1243;23531;-43
2022/03/25 07:27:49;;;;;;;;;31.67;25.33;23.20;32.80;;;;;;112638;1242;23720;-38
2022/03/25 07:30:17;;;;;;;;;37.33;28.67;23.30;37.00;;;;;;112623;1243;23327;-40
2022/03/25 07:32:52;;;;;;;;;36.67;26.67;23.30;34.10;;;;;;112801;1242;23297;-46
2022/03/25 07:35:22;;;;;;;;;23.50;20.00;23.40;32.20;;;;;;112894;1243;23557;-39
2022/03/25 07:37:49;;;;;;;;;35.50;27.00;23.50;33.50;;;;;;112758;1243;23327;-61
2022/03/25 07:40:17;;;;;;;;;24.67;23.00;23.70;38.30;;;;;;112668;1242;23549;-62
2022/03/25 09:10:40;;;;;;;;;;;;;;;;;;34426;1281;3011349;-37
2022/03/25 14:23:45;;;;;;;;;;;;;28.20;98198.91;;;;113928;1201;541394;-47
2022/03/25 14:29:00;;;;;;;;;16.25;14.00;;;28.89;98204.56;;;;116864;1207;23137;-54
2022/03/25 14:31:28;;;;;;;;;20.00;15.67;;;29.07;98205.13;;;;118140;1192;24981;-55
2022/03/25 14:33:54;;;;;;;;;19.00;14.75;;;29.37;98208.24;;;;118183;1193;25546;-54
2022/03/25 14:36:23;;;;;;;;;19.75;18.25;;;29.38;98204.67;;;;118607;1191;24926;-55
2022/03/25 14:38:50;;;;;;;;;17.00;15.25;;;29.39;98197.59;;;;118775;1190;25024;-55
2022/03/25 14:41:19;;;;;;;;;19.00;16.00;;;29.44;98195.29;;;;118802;1191;25236;-55
2022/03/25 14:43:47;;;;;;;;;23.00;18.67;;;29.49;98201.49;;;;118685;1190;25425;-54
2022/03/25 14:46:17;;;;;;;;;20.33;18.33;;;29.40;98200.45;;;;118677;1191;24767;-56
2022/03/25 14:48:46;;;;;;;;;22.00;17.00;;;29.39;98203.02;;;;119037;1191;25120;-56
2022/03/25 14:51:13;;;;;;;;;21.50;16.50;;;29.46;98209.52;;;;118381;1190;25466;-55
2022/03/25 14:53:40;;;;;;;;;18.75;17.75;;;29.31;98206.84;;;;118510;1190;25182;-54
2022/03/25 14:56:07;;;;;;;;;18.00;15.50;;;29.19;98209.31;;;;118460;1190;25550;-54
2022/03/25 14:58:36;;;;;;;;;18.00;15.00;;;29.09;98206.20;;;;118340;1191;25324;-55
2022/03/25 15:01:06;;;;;;;;;22.00;15.25;;;28.97;98207.48;;;;118517;1191;26024;-54
2022/03/25 15:03:33;;;;;;;;;20.25;15.25;;;28.93;98206.81;;;;118573;1190;25516;-55
2022/03/25 15:06:02;;;;;;;;;16.25;12.00;;;28.85;98204.01;;;;118527;1190;24834;-54
2022/03/25 15:08:31;;;;;;;;;20.00;18.25;;;28.80;98207.62;;;;118854;1191;25049;-54
2022/03/25 15:10:58;;;;;;;;;17.00;15.50;;;28.87;98210.58;;;;118723;1190;25630;-54
2022/03/25 15:13:28;;;;;;;;;16.50;16.50;;;28.88;98211.30;;;;118895;1190;25308;-54
2022/03/25 15:15:57;;;;;;;;;19.75;14.25;;;28.90;98215.60;;;;118730;1189;25231;-54
2022/03/25 15:18:24;;;;;;;;;19.50;15.75;;;28.88;98217.94;;;;118457;1190;24957;-55
2022/03/25 15:20:54;;;;;;;;;19.00;15.75;;;28.76;98221.38;;;;118725;1190;25315;-55
2022/03/25 15:23:20;;;;;;;;;17.00;14.67;;;28.70;98220.13;;;;118956;1191;25366;-55
2022/03/25 15:25:47;;;;;;;;;21.75;17.00;;;28.77;98227.28;;;;118598;1189;25404;-55
2022/03/25 15:28:14;;;;;;;;;22.75;15.50;;;28.69;98226.50;;;;118534;1191;24907;-54
2022/03/25 15:36:17;;;;;;;;;18.75;15.75;;;28.60;98234.52;;;;118231;1189;25694;-54
2022/03/25 15:39:05;;;;;;;;;20.33;15.00;;;28.48;98240.63;;;;118433;1191;25695;-54
2022/03/25 15:41:32;;;;;;;;;17.50;13.00;;;28.36;98240.31;;;;118443;1191;24730;-55
2022/03/25 15:43:58;;;;;;;;;16.67;15.67;;;28.31;98239.20;;;;118468;1189;25398;-55
2022/03/25 15:46:28;;;;;;;;;16.50;14.00;;;28.24;98241.64;;;;118445;1190;24754;-54
2022/03/25 15:48:58;;;;;;;;;13.75;13.25;;;28.19;98241.48;;;;118427;1189;25396;-54
2022/03/25 15:51:27;;;;;;;;;16.75;15.00;;;28.15;98245.05;;;;118566;1189;25358;-54
2022/03/25 15:53:54;;;;;;;;;17.00;14.33;;;28.18;98245.62;;;;118369;1189;25512;-54
2022/03/25 15:56:22;;;;;;;;;17.25;15.00;;;28.12;98247.60;;;;118844;1190;25650;-54
2022/03/25 15:58:50;;;;;;;;;19.00;14.33;;;28.21;98249.88;;;;118912;1190;25461;-53
2022/03/25 16:01:19;;;;;;;;;16.00;10.75;;;28.27;98255.78;;;;118728;1189;25624;-54
2022/03/25 16:03:49;;;;;;;;;17.67;15.33;;;28.27;98257.39;;;;118876;1191;25613;-54
2022/03/25 16:06:17;;;;;;;;;18.50;16.25;;;28.30;98261.48;;;;118373;1190;25048;-54
2022/03/25 16:08:44;;;;;;;;;17.00;15.00;;;28.17;98262.31;;;;118703;1189;24850;-54
2022/03/25 16:11:12;;;;;;;;;16.25;11.75;;;28.15;98264.98;;;;118668;1189;25713;-53
2022/03/25 16:13:40;;;;;;;;;20.50;16.75;;;28.12;98266.52;;;;118561;1190;24801;-54
2022/03/25 16:16:10;;;;;;;;;15.25;14.25;;;28.08;98268.84;;;;118700;1190;25376;-54
2022/03/25 16:18:39;;;;;;;;;18.75;15.00;;;28.06;98269.52;;;;118754;1191;24890;-54
2022/03/25 16:21:08;;;;;;;;;21.50;17.00;;;28.07;98274.38;;;;118693;1191;24980;-54
2022/03/25 16:23:34;;;;;;;;;21.50;19.25;;;28.05;98276.73;;;;118605;1190;25774;-55
2022/03/25 16:26:03;;;;;;;;;24.25;19.75;;;28.02;98276.33;;;;118690;1191;25702;-54
2022/03/25 16:28:31;;;;;;;;;16.00;15.25;;;27.99;98281.98;;;;118445;1191;25295;-54
2022/03/25 16:30:59;;;;;;;;;19.75;16.75;;;27.92;98285.35;;;;118417;1191;25504;-55
2022/03/25 16:33:28;;;;;;;;;24.00;18.67;;;27.85;98289.40;;;;118247;1189;25675;-54
2022/03/25 16:35:58;;;;;;;;;14.75;13.50;;;27.72;98289.68;;;;118479;1190;25532;-54
2022/03/25 16:38:25;;;;;;;;;22.75;19.50;;;27.69;98294.76;;;;118571;1191;25128;-54
2022/03/25 16:40:55;;;;;;;;;17.25;15.25;;;27.71;98297.41;;;;118542;1189;25675;-55
2022/03/25 16:43:24;;;;;;;;;17.75;14.75;;;27.71;98300.23;;;;118891;1191;25702;-54
2022/03/25 16:45:53;;;;;;;;;18.75;17.25;;;27.81;98303.27;;;;119054;1189;24976;-55
2022/03/25 16:48:19;;;;;;;;;18.00;16.67;;;27.91;98304.95;;;;118760;1190;24952;-54
2022/03/25 16:50:48;;;;;;;;;24.00;21.00;;;27.87;98304.25;;;;118506;1190;24841;-55
2022/03/25 16:53:16;;;;;;;;;25.67;20.67;;;27.77;98301.57;;;;118680;1191;25737;-55
2022/03/25 16:55:43;;;;;;;;;36.67;25.67;;;27.75;98304.17;;;;118530;1190;25068;-54
2022/03/25 16:58:10;;;;;;;;;28.67;25.33;;;27.68;98310.11;;;;118437;1190;25789;-55
2022/03/25 17:00:38;;;;;;;;;22.50;20.50;;;27.59;98315.42;;;;118622;1191;25266;-55
2022/03/25 17:03:08;;;;;;;;;25.67;22.67;;;27.59;98318.92;;;;118469;1191;25221;-55
2022/03/25 17:05:38;;;;;;;;;25.00;20.67;;;27.55;98324.30;;;;118702;1191;25521;-55
2022/03/25 17:08:07;;;;;;;;;22.00;18.67;;;27.56;98328.02;;;;118476;1191;24984;-55
2022/03/25 17:10:35;;;;;;;;;22.67;21.00;;;27.52;98331.92;;;;118611;1189;25613;-54
2022/03/25 17:13:03;;;;;;;;;21.75;20.50;;;27.48;98337.77;;;;118266;1190;25554;-54
2022/03/25 17:15:31;;;;;;;;;21.33;19.33;;;27.36;98346.48;;;;118736;1191;25476;-54
2022/03/25 17:18:02;;;;;;;;;30.67;23.33;;;27.41;98344.98;;;;118360;1190;24998;-55
2022/03/25 17:20:33;;;;;;;;;26.00;20.33;;;27.34;98345.94;;;;118511;1190;25459;-57
2022/03/25 17:23:03;;;;;;;;;24.00;21.33;;;27.31;98352.91;;;;118406;1191;25482;-53
2022/03/25 17:25:32;;;;;;;;;28.00;21.50;;;27.18;98355.95;;;;118507;1191;25087;-55
2022/03/25 17:27:59;;;;;;;;;22.50;19.00;;;27.27;98363.90;;;;118597;1190;25312;-55
2022/03/25 17:30:29;;;;;;;;;21.50;19.75;;;27.42;98371.27;;;;118744;1189;25200;-60
2022/03/25 17:33:05;;;;;;;;;26.00;18.33;;;27.59;98376.25;;;;119481;1187;24718;-56
2022/03/25 17:35:39;;;;;;;;;22.67;18.00;;;27.83;98384.98;;;;119052;1188;25463;-60
2022/03/25 17:38:07;;;;;;;;;23.00;18.67;;;27.92;98388.25;;;;119085;1187;24868;-64
2022/03/25 17:40:34;;;;;;;;;23.67;18.00;;;28.02;98389.86;;;;119272;1187;24740;-55
2022/03/25 17:43:26;;;;;;;;;21.00;17.33;;;28.24;98391.00;;;;118221;1187;25108;-57
2022/03/25 17:45:56;;;;;;;;;25.00;20.33;;;28.00;98394.41;;;;117819;1186;26302;-56
2022/03/25 17:48:27;;;;;;;;;26.50;20.00;;;27.69;98398.19;;;;117984;1186;24885;-59
2022/03/25 17:50:57;;;;;;;;;25.50;21.25;;;27.49;98401.08;;;;117974;1186;25830;-58
2022/03/25 17:53:33;;;;;;;;;16.75;16.00;;;27.44;98408.57;;;;117971;1187;25253;-61
2022/03/25 17:56:05;;;;;;;;;22.67;15.33;;;27.43;98415.54;;;;117608;1188;25168;-56
2022/03/25 17:58:32;;;;;;;;;22.00;17.67;;;27.32;98420.82;;;;117870;1188;25190;-57
2022/03/25 18:01:01;;;;;;;;;24.75;19.25;;;27.24;98423.97;;;;117519;1188;25610;-57
2022/03/25 18:03:31;;;;;;;;;25.67;19.67;;;27.16;98423.71;;;;117852;1186;24807;-59
2022/03/25 18:05:58;;;;;;;;;20.33;15.67;;;27.11;98423.54;;;;117852;1187;24869;-57
2022/03/25 18:08:25;;;;;;;;;24.00;20.00;;;27.05;98424.58;;;;117847;1187;24888;-56
2022/03/25 18:10:53;;;;;;;;;18.00;15.33;;;27.01;98428.85;;;;117870;1187;26111;-59
2022/03/25 18:13:19;;;;;;;;;22.67;18.33;;;27.00;98433.49;;;;117718;1189;25406;-57
2022/03/25 18:15:45;;;;;;;;;22.00;20.00;;;27.08;98438.23;;;;117887;1187;25676;-57
2022/03/25 18:18:17;;;;;;;;;22.33;20.33;;;27.07;98440.41;;;;118097;1186;24861;-58
2022/03/25 18:20:55;;;;;;;;;24.50;20.50;;;27.21;98449.16;;;;117935;1187;25550;-56
2022/03/25 18:23:25;;;;;;;;;21.50;18.25;;;27.27;98450.99;;;;117886;1186;25143;-58
2022/03/25 18:25:51;;;;;;;;;24.00;18.67;;;27.29;98450.74;;;;118175;1188;25086;-58
2022/03/25 18:28:21;;;;;;;;;20.00;16.75;;;27.39;98453.98;;;;117763;1186;25935;-59
2022/03/25 18:30:47;;;;;;;;;25.33;19.67;;;27.31;98455.66;;;;117813;1186;25725;-59
2022/03/25 18:33:14;;;;;;;;;25.67;21.67;;;27.24;98456.05;;;;118016;1186;25137;-60
2022/03/25 18:35:41;;;;;;;;;23.33;20.67;;;27.24;98460.02;;;;117777;1187;25206;-61
2022/03/25 18:38:11;;;;;;;;;24.00;18.50;;;27.20;98462.94;;;;117896;1188;25131;-61
2022/03/25 18:40:41;;;;;;;;;21.50;21.50;;;27.12;98465.38;;;;117628;1188;25451;-58
2022/03/25 18:43:11;;;;;;;;;22.50;19.25;;;27.11;98470.79;;;;117788;1188;25227;-60
2022/03/25 18:45:42;;;;;;;;;24.00;19.50;;;27.07;98475.31;;;;117527;1189;24920;-62
2022/03/25 18:48:12;;;;;;;;;23.00;16.67;;;27.05;98477.30;;;;117886;1188;25319;-58
2022/03/25 18:50:47;;;;;;;;;22.00;18.67;;;27.08;98480.33;;;;117968;1186;25198;-59
2022/03/25 18:53:13;;;;;;;;;21.67;19.67;;;27.15;98483.48;;;;117787;1188;25526;-62
2022/03/25 18:55:50;;;;;;;;;22.50;19.00;;;27.16;98487.33;;;;118006;1187;24823;-59
2022/03/25 18:58:16;;;;;;;;;25.00;20.25;;;27.20;98485.98;;;;117847;1188;25657;-61
2022/03/25 19:00:43;;;;;;;;;26.75;19.00;;;27.13;98489.65;;;;117504;1189;24743;-61